createdAt,value
2022-12-08T00:46:19.086Z,100979.81
2022-12-08T00:51:26.475Z,100973.91
2022-12-08T00:56:50.905Z,100973.66
2022-12-08T01:02:08.007Z,100967.31
2022-12-08T01:07:30.261Z,100968.66
2022-12-08T01:12:36.395Z,100977.56
2022-12-08T01:17:52.987Z,100979.22
2022-12-08T01:22:59.245Z,100970.34
2022-12-08T01:28:03.069Z,100984.44
2022-12-08T01:33:09.037Z,100970.97
2022-12-08T01:38:16.460Z,100979.09
2022-12-08T01:43:25.079Z,100971.41
2022-12-08T01:48:29.216Z,100969.72
2022-12-08T01:53:48.545Z,100977.56
2022-12-08T01:58:59.387Z,100962.66
2022-12-08T02:04:16.222Z,100963.78
2022-12-08T02:09:22.871Z,100975.88
2022-12-08T02:14:29.678Z,100978.78
2022-12-08T02:20:16.215Z,100971.72
2022-12-08T02:25:38.753Z,100969.66
2022-12-08T02:30:51.034Z,100963.38
2022-12-08T02:36:22.333Z,100973.94
2022-12-08T02:41:38.272Z,100975.69
2022-12-08T02:46:53.130Z,100967.03
2022-12-08T02:51:58.587Z,100966.59
2022-12-08T02:57:44.847Z,100978.16
2022-12-08T03:03:46.726Z,100989.28
2022-12-08T03:09:07.625Z,100971.50
2022-12-08T03:14:28.912Z,100979.00
2022-12-08T03:19:53.456Z,100991.66
2022-12-08T03:33:27.475Z,100993.59
2022-12-08T03:46:04.456Z,100995.38
2022-12-08T03:51:36.774Z,101003.22
2022-12-08T04:09:47.064Z,101010.94
2022-12-08T04:15:58.456Z,101013.31
2022-12-08T04:21:16.649Z,101009.00
2022-12-08T04:26:54.854Z,101019.72
2022-12-08T04:44:05.209Z,101015.47
2022-12-08T04:49:30.534Z,101014.44
2022-12-08T04:54:33.973Z,101009.84
2022-12-08T05:00:21.056Z,101008.59
2022-12-08T05:20:50.728Z,101016.31
2022-12-08T05:26:00.773Z,101025.81
2022-12-08T05:31:00.536Z,101031.06
2022-12-08T05:35:59.578Z,101034.59
2022-12-08T05:40:58.739Z,101035.31
2022-12-08T05:45:59.233Z,101043.88
2022-12-08T05:50:58.141Z,101035.03
2022-12-08T05:55:57.223Z,101050.09
2022-12-08T06:00:59.095Z,101059.13
2022-12-08T06:06:01.542Z,101057.34
2022-12-08T06:11:03.615Z,101077.03
2022-12-08T06:16:07.521Z,101084.97
2022-12-08T06:21:13.384Z,101079.53
2022-12-08T06:26:16.727Z,101071.69
2022-12-08T06:31:22.671Z,101081.06
2022-12-08T06:36:24.620Z,101079.91
2022-12-08T06:41:24.193Z,101085.94
2022-12-08T06:46:29.291Z,101089.28
2022-12-08T06:51:28.453Z,101107.91
2022-12-08T06:56:28.297Z,101095.53
2022-12-08T07:01:34.933Z,101103.75
2022-12-08T07:06:34.267Z,101108.44
2022-12-08T07:11:35.792Z,101111.75
2022-12-08T07:16:36.812Z,101108.03
2022-12-08T07:21:35.912Z,101110.09
2022-12-08T07:26:35.319Z,101112.41
2022-12-08T07:31:36.219Z,101105.09
2022-12-08T07:36:43.214Z,101111.78
2022-12-08T07:42:45.385Z,101118.72
2022-12-08T07:49:27.201Z,101117.00
2022-12-08T10:36:24.014Z,101022.56
2022-12-08T10:41:50.482Z,101019.47
2022-12-08T10:54:58.561Z,101052.28
2022-12-08T11:08:18.460Z,101018.28
2022-12-08T11:13:23.424Z,101008.72
2022-12-08T11:18:27.128Z,101012.28
2022-12-08T11:23:28.192Z,101010.22
2022-12-08T11:28:28.709Z,101005.09
2022-12-08T11:33:29.399Z,100998.16
2022-12-08T11:38:29.746Z,100992.75
2022-12-08T11:43:41.052Z,100972.28
2022-12-08T11:48:48.756Z,100979.16
2022-12-08T11:53:59.120Z,100978.44
2022-12-08T11:59:03.867Z,100977.94
2022-12-08T12:04:17.208Z,100985.28
2022-12-08T12:09:21.015Z,100977.22
2022-12-08T12:14:44.793Z,100983.34
2022-12-08T12:19:43.824Z,100981.00
2022-12-08T12:24:47.746Z,100980.88
2022-12-08T12:29:55.729Z,100990.13
2022-12-08T12:34:58.560Z,100992.97
2022-12-08T12:40:03.292Z,100985.50
2022-12-08T12:45:29.553Z,100970.06
2022-12-08T12:50:44.240Z,100959.72
2022-12-08T12:55:55.350Z,100947.22
2022-12-08T13:01:37.215Z,100942.59
2022-12-08T13:06:42.950Z,100947.38
2022-12-08T13:11:49.911Z,100938.44
2022-12-08T13:16:56.385Z,100942.81
2022-12-08T13:21:55.408Z,100951.72
2022-12-08T13:27:35.638Z,100951.22
2022-12-08T13:33:17.583Z,100947.09
2022-12-08T13:38:21.050Z,100948.31
2022-12-08T13:43:50.981Z,100941.31
2022-12-08T13:59:47.058Z,100961.72
2022-12-08T14:10:14.362Z,100964.97
2022-12-08T14:15:17.902Z,100955.47
2022-12-08T14:20:25.629Z,100945.81
2022-12-08T14:25:25.659Z,100947.38
2022-12-08T14:30:30.688Z,100951.81
2022-12-08T14:35:33.485Z,100950.47
2022-12-08T14:40:35.462Z,100958.69
2022-12-08T14:45:35.585Z,100964.56
2022-12-08T14:50:43.613Z,100949.47
2022-12-08T14:55:44.901Z,100941.06
2022-12-08T15:00:48.452Z,100938.72
2022-12-08T15:05:56.889Z,100950.94
2022-12-08T15:11:15.313Z,100958.28
2022-12-08T15:16:28.358Z,100949.50
2022-12-08T15:21:36.990Z,100953.78
2022-12-08T15:26:41.319Z,100954.16
2022-12-08T15:31:41.140Z,100941.81
2022-12-08T15:36:43.181Z,100940.22
2022-12-08T15:41:42.332Z,100936.91
2022-12-08T15:46:41.620Z,100940.97
2022-12-08T15:51:42.603Z,100932.28
2022-12-08T15:57:17.195Z,100935.72
2022-12-08T16:02:08.329Z,100938.34
2022-12-08T16:07:22.534Z,100933.06
2022-12-08T16:18:04.525Z,100933.75
2022-12-08T16:23:19.728Z,100942.88
2022-12-08T16:28:53.290Z,100945.31
2022-12-08T16:33:52.646Z,100935.63
2022-12-08T16:38:53.707Z,100923.63
2022-12-08T16:43:53.705Z,100926.34
2022-12-08T16:48:56.942Z,100935.91
2022-12-08T16:53:58.703Z,100929.56
2022-12-08T16:59:01.256Z,100930.41
2022-12-08T17:09:31.142Z,100950.88
2022-12-08T17:14:35.120Z,100947.75
2022-12-08T17:19:35.850Z,100932.25
2022-12-08T17:24:52.031Z,100936.25
2022-12-08T17:29:51.349Z,100921.44
2022-12-08T17:34:50.460Z,100913.56
2022-12-08T17:39:51.044Z,100897.78
2022-12-08T17:44:51.349Z,100897.94
2022-12-08T17:49:54.274Z,100890.09
2022-12-08T17:55:00.516Z,100884.63
2022-12-08T18:00:09.129Z,100889.84
2022-12-08T18:05:13.021Z,100859.38
2022-12-08T18:10:14.130Z,100866.16
2022-12-08T18:15:20.819Z,100876.81
2022-12-08T18:20:21.622Z,100885.63
2022-12-08T18:25:25.073Z,100888.03
2022-12-08T18:30:26.909Z,100904.78
2022-12-08T18:35:27.363Z,100890.22
2022-12-08T18:40:28.542Z,100884.69
2022-12-08T18:45:27.766Z,100884.50
2022-12-08T18:50:30.240Z,100888.63
2022-12-08T18:55:33.719Z,100876.53
2022-12-08T19:00:32.897Z,100879.50
2022-12-08T19:05:32.253Z,100858.63
2022-12-08T19:10:32.490Z,100861.78
2022-12-08T19:15:33.458Z,100870.97
2022-12-08T19:20:32.789Z,100866.47
2022-12-08T19:25:35.401Z,100861.72
2022-12-08T19:30:39.778Z,100853.25
2022-12-08T19:35:49.048Z,100840.59
2022-12-08T19:41:08.850Z,100836.44
2022-12-08T19:46:19.421Z,100844.13
2022-12-08T19:51:20.922Z,100858.03
2022-12-08T19:56:20.133Z,100858.09
2022-12-08T20:01:21.925Z,100870.50
2022-12-08T20:06:32.670Z,100869.50
2022-12-08T20:11:31.892Z,100882.22
2022-12-08T20:16:45.971Z,100887.31
2022-12-08T20:22:17.924Z,100869.75
2022-12-08T20:27:17.203Z,100883.81
2022-12-08T20:32:18.835Z,100891.75
2022-12-08T20:37:20.612Z,100878.41
2022-12-08T20:42:24.261Z,100890.53
2022-12-08T20:47:27.876Z,100897.63
2022-12-08T20:52:30.720Z,100896.69
2022-12-08T20:57:30.073Z,100896.50
2022-12-08T21:02:33.685Z,100893.03
2022-12-08T21:07:33.957Z,100897.94
2022-12-08T21:12:33.692Z,100897.94
2022-12-08T21:17:36.864Z,100909.50
2022-12-08T21:22:36.171Z,100901.22
2022-12-08T21:27:35.440Z,100901.72
2022-12-08T21:32:36.701Z,100895.72
2022-12-08T21:37:38.361Z,100916.59
2022-12-08T21:42:47.256Z,100911.03
2022-12-08T21:47:50.076Z,100897.31
2022-12-08T21:52:50.457Z,100896.09
2022-12-08T21:58:09.365Z,100887.06
2022-12-08T22:03:14.218Z,100881.91
2022-12-08T22:09:29.740Z,100874.75
2022-12-08T22:14:29.487Z,100872.06
2022-12-08T22:19:31.945Z,100883.53
2022-12-08T22:24:32.552Z,100861.78
2022-12-08T22:29:32.327Z,100854.38
2022-12-08T22:34:42.224Z,100843.13
2022-12-08T22:39:50.591Z,100851.53
2022-12-08T22:44:49.766Z,100844.97
2022-12-08T22:49:53.576Z,100848.53
2022-12-08T22:54:52.791Z,100853.22
2022-12-08T22:59:51.744Z,100857.19
2022-12-08T23:04:56.750Z,100838.72
2022-12-08T23:09:56.489Z,100839.63
2022-12-08T23:14:55.572Z,100825.41
2022-12-08T23:19:58.795Z,100820.69
2022-12-08T23:24:58.322Z,100820.75
2022-12-08T23:29:58.116Z,100814.69
2022-12-08T23:34:59.011Z,100820.25
2022-12-08T23:39:58.180Z,100833.03
2022-12-08T23:44:57.511Z,100838.66
2022-12-08T23:49:59.035Z,100853.97
2022-12-08T23:54:59.887Z,100866.78
2022-12-08T23:59:59.299Z,100883.75
